Terminal Aerodrome Forecast
Issued by NWS

Home | Current Version | Previous Version | Text Only | Print | Product List | Glossary On
Versions: 1 2 3 4 5 6 7 8 9 10 11 12 13 14 15 16 17 18 19 20 21 22 23 24 25 26 27 28 29 30 31
000
FTUS44 KMOB 021800 AAA
TAFBFM
TAF AMD
KBFM 021824Z 0218/0318 15009KT P6SM VCTS SCT040CB BKN050
      TEMPO 0218/0222 VRB30KT P6SM TSRA BKN025CB
     FM030200 VRB04KT P6SM VCSH BKN030 OVC150
     FM030500 00000KT P6SM OVC250=

USA.gov is the U.S. government's official web portal to all federal, state and local government web resources and services.